Time;durP1;ratioP1;P1;durP2;ratioP2;P2;SDS_P1;SDS_P2;PMS_P1;PMS_P2;Temp;Humidity;BMP_temperature;BMP_pressure;BME280_temperature;BME280_humidity;BME280_pressure;Samples;Min_cycle;Max_cycle;Signal;HPM_P1;HPM_P2
2020/08/04 00:00:15;;;;;;;0.7;0.5;;;;;;;;;;;;;
2020/08/04 00:02:45;;;;;;;2.4;1;;;;;;;;;;;;;
2020/08/04 00:05:11;;;;;;;2;0.8;;;;;;;;;;;;;
2020/08/04 00:07:43;;;;;;;0.8;0.6;;;;;;;;;;;;;
2020/08/04 00:10:12;;;;;;;2.4;0.8;;;;;;;;;;;;;
2020/08/04 00:12:39;;;;;;;1.8;0.7;;;;;;;;;;;;;
2020/08/04 00:15:04;;;;;;;1.3;0.6;;;;;;;;;;;;;
2020/08/04 00:17:29;;;;;;;1.1;0.6;;;;;;;;;;;;;
2020/08/04 00:19:54;;;;;;;1.2;0.7;;;;;;;;;;;;;
2020/08/04 00:22:20;;;;;;;3.2;1.1;;;;;;;;;;;;;
2020/08/04 00:24:45;;;;;;;2.2;1.2;;;;;;;;;;;;;
2020/08/04 00:27:12;;;;;;;3.3;1.1;;;;;;;;;;;;;
2020/08/04 00:29:37;;;;;;;1.8;0.6;;;;;;;;;;;;;
2020/08/04 00:32:03;;;;;;;0.8;0.6;;;;;;;;;;;;;
2020/08/04 00:34:28;;;;;;;1.3;0.8;;;;;;;;;;;;;
2020/08/04 00:36:53;;;;;;;2.9;1.1;;;;;;;;;;;;;
2020/08/04 00:39:20;;;;;;;2.9;1.2;;;;;;;;;;;;;
2020/08/04 00:41:45;;;;;;;1.8;0.8;;;;;;;;;;;;;
2020/08/04 00:44:10;;;;;;;2.7;0.8;;;;;;;;;;;;;
2020/08/04 00:46:35;;;;;;;2.4;0.9;;;;;;;;;;;;;
2020/08/04 00:49:00;;;;;;;1.5;0.7;;;;;;;;;;;;;
2020/08/04 00:51:25;;;;;;;3.2;0.7;;;;;;;;;;;;;
2020/08/04 00:53:50;;;;;;;3;1;;;;;;;;;;;;;
2020/08/04 00:56:18;;;;;;;3.6;1.2;;;;;;;;;;;;;
2020/08/04 00:58:43;;;;;;;2.4;0.9;;;;;;;;;;;;;
2020/08/04 01:01:14;;;;;;;2.5;0.8;;;;;;;;;;;;;
2020/08/04 01:03:40;;;;;;;1.6;0.8;;;;;;;;;;;;;
2020/08/04 01:06:05;;;;;;;4;1.5;;;;;;;;;;;;;
2020/08/04 01:08:32;;;;;;;2.1;0.9;;;;;;;;;;;;;
2020/08/04 01:10:57;;;;;;;2.9;0.8;;;;;;;;;;;;;
2020/08/04 01:13:22;;;;;;;1.5;0.9;;;;;;;;;;;;;
2020/08/04 01:15:49;;;;;;;5.1;1.6;;;;;;;;;;;;;
2020/08/04 01:18:18;;;;;;;3.7;1.3;;;;;;;;;;;;;
2020/08/04 01:20:39;;;;;;;2.2;1;;;;;;;;;;;;;
2020/08/04 01:23:06;;;;;;;3.6;1.3;;;;;;;;;;;;;
2020/08/04 01:25:31;;;;;;;2.9;1;;;;;;;;;;;;;
2020/08/04 01:27:57;;;;;;;3.1;1;;;;;;;;;;;;;
2020/08/04 01:30:24;;;;;;;1.3;0.6;;;;;;;;;;;;;
2020/08/04 01:32:51;;;;;;;1.3;0.6;;;;;;;;;;;;;
2020/08/04 01:35:16;;;;;;;1.2;0.7;;;;;;;;;;;;;
2020/08/04 01:37:42;;;;;;;0.9;0.5;;;;;;;;;;;;;
2020/08/04 01:40:07;;;;;;;0.7;0.4;;;;;;;;;;;;;
2020/08/04 01:42:33;;;;;;;1.3;0.6;;;;;;;;;;;;;
2020/08/04 01:44:58;;;;;;;3;0.9;;;;;;;;;;;;;
2020/08/04 01:47:23;;;;;;;2.8;0.8;;;;;;;;;;;;;
2020/08/04 01:49:50;;;;;;;2.2;0.8;;;;;;;;;;;;;
2020/08/04 01:52:15;;;;;;;1.3;0.6;;;;;;;;;;;;;
2020/08/04 01:54:40;;;;;;;1.9;0.7;;;;;;;;;;;;;
2020/08/04 01:57:05;;;;;;;1;0.8;;;;;;;;;;;;;
2020/08/04 01:59:30;;;;;;;1.2;0.9;;;;;;;;;;;;;
2020/08/04 02:01:57;;;;;;;1.4;0.9;;;;;;;;;;;;;
2020/08/04 02:04:22;;;;;;;1.1;0.8;;;;;;;;;;;;;
2020/08/04 02:06:50;;;;;;;1.6;0.8;;;;;;;;;;;;;
2020/08/04 02:09:15;;;;;;;0.9;0.6;;;;;;;;;;;;;
2020/08/04 02:11:42;;;;;;;1.4;0.6;;;;;;;;;;;;;
2020/08/04 02:14:07;;;;;;;1;0.6;;;;;;;;;;;;;
2020/08/04 02:16:32;;;;;;;0.9;0.5;;;;;;;;;;;;;
2020/08/04 02:18:57;;;;;;;1.7;0.6;;;;;;;;;;;;;
2020/08/04 02:21:22;;;;;;;1.4;0.6;;;;;;;;;;;;;
2020/08/04 02:23:47;;;;;;;2.2;0.7;;;;;;;;;;;;;
2020/08/04 02:26:14;;;;;;;1.4;0.6;;;;;;;;;;;;;
2020/08/04 02:28:39;;;;;;;1.5;0.5;;;;;;;;;;;;;
2020/08/04 02:31:07;;;;;;;2.4;0.6;;;;;;;;;;;;;
2020/08/04 02:33:32;;;;;;;3.1;1.2;;;;;;;;;;;;;
2020/08/04 02:35:57;;;;;;;3.7;1;;;;;;;;;;;;;
2020/08/04 02:38:23;;;;;;;1.1;0.7;;;;;;;;;;;;;
2020/08/04 03:51:51;;;;;;;2.5;0.8;;;;;;;;;;;;;
2020/08/04 03:54:16;;;;;;;0.7;0.4;;;;;;;;;;;;;
2020/08/04 03:56:42;;;;;;;0.5;0.4;;;;;;;;;;;;;
2020/08/04 03:59:07;;;;;;;0.9;0.4;;;;;;;;;;;;;
2020/08/04 04:02:34;;;;;;;2.2;0.5;;;;;;;13.29;90.68164;932.475;;;;
2020/08/04 04:05:00;;;;;;;1.9;0.6;;;;;;;13.26;90.92871;932.4634;;;;
2020/08/04 04:07:28;;;;;;;1.6;0.7;;;;;;;13.29;91.29004;932.4094;;;;
2020/08/04 04:09:53;;;;;;;0.8;0.6;;;;;;;13.4;90.57715;932.4755;;;;
2020/08/04 04:12:18;;;;;;;0.5;0.4;;;;;;;13.49;90.04492;932.5148;;;;
2020/08/04 04:14:44;;;;;;;2.1;0.6;;;;;;;13.62;89.2998;932.5872;;;;
2020/08/04 04:17:09;;;;;;;0.6;0.6;;;;;;;13.69;90.35156;932.5847;;;;
2020/08/04 04:19:35;;;;;;;1.9;0.5;;;;;;;13.73;89.9209;932.5764;;;;
2020/08/04 04:22:00;;;;;;;1.3;0.6;;;;;;;13.75;90.12207;932.6487;;;;
2020/08/04 04:24:25;;;;;;;1.2;0.6;;;;;;;13.88;89.8623;932.782;;;;
2020/08/04 04:26:55;;;;;;;2.2;1;;;;;;;13.93;89.97461;932.7606;;;;
2020/08/04 04:29:20;;;;;;;3;0.8;;;;;;;13.96;89.07324;932.7714;;;;
2020/08/04 04:31:53;;;;;;;4.4;1.3;;;;;;;13.93;89.08887;932.8102;;;;
2020/08/04 04:34:19;;;;;;;1.9;0.8;;;;;;;13.95;89.40332;932.9356;;;;
2020/08/04 04:36:52;;;;;;;2.9;0.9;;;;;;;13.74;90.58008;933.0883;;;;
2020/08/04 04:39:18;;;;;;;1.9;0.7;;;;;;;13.59;91.24902;933.1528;;;;
2020/08/04 04:41:45;;;;;;;2.6;1.2;;;;;;;13.69;90.98438;933.1415;;;;
2020/08/04 04:44:11;;;;;;;1.4;0.7;;;;;;;13.75;89.83398;933.0865;;;;
2020/08/04 04:46:36;;;;;;;3.7;0.9;;;;;;;13.83;90.07129;933.0898;;;;
2020/08/04 04:49:01;;;;;;;1.5;0.8;;;;;;;13.81;89.56152;933.0786;;;;
2020/08/04 04:51:26;;;;;;;2.1;0.7;;;;;;;13.78;90.08301;933.1285;;;;
2020/08/04 04:53:51;;;;;;;2.1;0.8;;;;;;;13.8;90.35156;933.0699;;;;
2020/08/04 04:56:23;;;;;;;2.8;0.8;;;;;;;13.76;90.98828;933.1376;;;;
2020/08/04 04:58:50;;;;;;;1.6;0.8;;;;;;;13.69;90.8584;933.1616;;;;
2020/08/04 05:01:17;;;;;;;1.8;0.7;;;;;;;13.71;91.22949;933.2037;;;;
2020/08/04 05:03:48;;;;;;;1.4;0.7;;;;;;;13.69;90.96191;933.1953;;;;
2020/08/04 05:06:18;;;;;;;1.1;0.7;;;;;;;13.35;91.78418;933.2173;;;;
2020/08/04 05:08:45;;;;;;;1;0.7;;;;;;;13.36;91.36328;933.2267;;;;
2020/08/04 05:11:14;;;;;;;1.6;0.6;;;;;;;13.42;91.98535;933.3585;;;;
2020/08/04 05:13:44;;;;;;;1.6;0.5;;;;;;;13.48;92.19238;933.3442;;;;
2020/08/04 05:16:12;;;;;;;1.1;0.6;;;;;;;13.49;91.67676;933.3474;;;;
2020/08/04 05:18:37;;;;;;;1.2;0.6;;;;;;;13.44;91.5752;933.4182;;;;
2020/08/04 05:21:03;;;;;;;2.2;0.8;;;;;;;13.45;91.85156;933.4637;;;;
2020/08/04 05:23:28;;;;;;;0.9;0.5;;;;;;;13.47;91.78809;933.4419;;;;
2020/08/04 05:25:53;;;;;;;1.3;0.7;;;;;;;13.44;91.62109;933.4933;;;;
2020/08/04 05:28:18;;;;;;;1.9;0.7;;;;;;;13.42;91.5127;933.5536;;;;
2020/08/04 05:30:48;;;;;;;1.3;0.7;;;;;;;13.44;91.04688;933.5862;;;;
2020/08/04 05:33:13;;;;;;;1.5;0.6;;;;;;;13.53;91.64063;933.6469;;;;
2020/08/04 05:35:38;;;;;;;1;0.7;;;;;;;13.55;91.81641;933.6795;;;;
2020/08/04 05:38:03;;;;;;;2;0.8;;;;;;;13.61;91.30078;933.7358;;;;
2020/08/04 05:40:29;;;;;;;1.8;0.8;;;;;;;13.75;91.49023;933.7363;;;;
2020/08/04 05:42:54;;;;;;;2.2;0.7;;;;;;;13.62;91.59961;933.7512;;;;
2020/08/04 05:45:28;;;;;;;2.1;0.8;;;;;;;13.49;92.52734;933.7897;;;;
2020/08/04 05:47:57;;;;;;;1.3;0.9;;;;;;;13.52;93.08691;933.7566;;;;
2020/08/04 05:50:29;;;;;;;1.5;1.3;;;;;;;13.47;93.48926;933.8474;;;;
2020/08/04 05:52:54;;;;;;;1.7;1.3;;;;;;;13.68;92.94922;933.801;;;;
2020/08/04 05:55:20;;;;;;;2.9;1.6;;;;;;;13.87;92.7002;933.8777;;;;
2020/08/04 05:57:46;;;;;;;1.7;1.1;;;;;;;13.82;91.60938;933.8998;;;;
2020/08/04 06:00:11;;;;;;;2.1;1;;;;;;;13.83;91.33691;933.8533;;;;
2020/08/04 06:02:36;;;;;;;1.2;0.9;;;;;;;13.42;92.13477;933.9278;;;;
2020/08/04 06:05:02;;;;;;;2.1;1.2;;;;;;;13.63;92.85938;933.995;;;;
2020/08/04 06:07:29;;;;;;;2.3;1.6;;;;;;;13.83;92.83008;934.075;;;;
2020/08/04 06:09:54;;;;;;;3.8;1.5;;;;;;;14;92.11914;934.0876;;;;
2020/08/04 06:12:19;;;;;;;5.5;3.6;;;;;;;14.12;91.37402;934.0675;;;;
2020/08/04 06:14:44;;;;;;;1.9;1.7;;;;;;;14.05;90.96582;934.1139;;;;
2020/08/04 06:17:10;;;;;;;2.7;1.9;;;;;;;14.16;90.875;934.228;;;;
2020/08/04 06:19:35;;;;;;;2.7;2;;;;;;;14.07;89.60156;934.1825;;;;
2020/08/04 06:22:01;;;;;;;4;2.2;;;;;;;14.19;89.60254;934.118;;;;
2020/08/04 06:24:26;;;;;;;3.4;2.1;;;;;;;14.21;89.33008;934.1786;;;;
2020/08/04 06:26:52;;;;;;;3;2;;;;;;;14.3;89.56738;934.3364;;;;
2020/08/04 06:29:17;;;;;;;4;2.2;;;;;;;14.23;87.66602;934.3372;;;;
2020/08/04 06:31:44;;;;;;;4.2;2.5;;;;;;;14.11;89.02246;934.3046;;;;
2020/08/04 06:34:10;;;;;;;3.5;1.9;;;;;;;13.95;89.61035;934.3564;;;;
2020/08/04 06:36:38;;;;;;;2.5;1.7;;;;;;;13.84;90.33789;934.3798;;;;
2020/08/04 06:39:06;;;;;;;4;3.5;;;;;;;13.91;90.76465;934.3928;;;;
2020/08/04 06:41:34;;;;;;;6;4.5;;;;;;;14;90.8418;934.468;;;;
2020/08/04 06:43:59;;;;;;;1;0.8;;;;;;;13.81;89.04004;934.4224;;;;
2020/08/04 06:46:28;;;;;;;2.8;1.5;;;;;;;13.83;90.6123;934.5128;;;;
2020/08/04 06:48:55;;;;;;;2.2;1.8;;;;;;;13.96;90.52344;934.5859;;;;
2020/08/04 06:51:24;;;;;;;4;2.8;;;;;;;14.02;90.68457;934.6042;;;;
2020/08/04 06:53:54;;;;;;;3.2;1.8;;;;;;;14.14;90.51465;934.6902;;;;
2020/08/04 06:56:23;;;;;;;2.6;1.6;;;;;;;14.22;89.9209;934.713;;;;
2020/08/04 06:58:48;;;;;;;3.2;1.3;;;;;;;14.22;89.9209;934.7417;;;;
2020/08/04 07:01:16;;;;;;;1.8;1;;;;;;;14.08;90.06445;934.8309;;;;
2020/08/04 07:03:41;;;;;;;1.5;1.1;;;;;;;14.13;90.33789;934.7913;;;;
2020/08/04 07:06:07;;;;;;;5.4;3.8;;;;;;;14.12;88.81641;934.9139;;;;
2020/08/04 07:08:34;;;;;;;5.4;4.2;;;;;;;14.24;88.51855;934.9105;;;;
2020/08/04 07:11:03;;;;;;;3.2;1.5;;;;;;;14.12;88.12793;934.9314;;;;
2020/08/04 07:13:28;;;;;;;2.2;1.1;;;;;;;14.06;87.86035;934.9769;;;;
2020/08/04 07:16:00;;;;;;;0.9;0.8;;;;;;;14.01;88.17285;935.0715;;;;
2020/08/04 07:18:27;;;;;;;1.5;1.2;;;;;;;14.12;89.41504;935.1172;;;;
2020/08/04 07:20:52;;;;;;;2.2;1.1;;;;;;;14.28;88.43555;935.2338;;;;
2020/08/04 07:23:18;;;;;;;2.4;1.4;;;;;;;14.22;85.61426;935.2175;;;;
2020/08/04 07:25:43;;;;;;;1.5;1.2;;;;;;;14.26;85.05566;935.2668;;;;
2020/08/04 07:28:08;;;;;;;4.4;1.6;;;;;;;14.29;85.82324;935.2505;;;;
2020/08/04 07:30:35;;;;;;;3.8;1.9;;;;;;;14.45;86.47656;935.2654;;;;
2020/08/04 07:33:03;;;;;;;3.8;1.7;;;;;;;14.52;87.38867;935.3456;;;;
2020/08/04 07:35:28;;;;;;;3.3;1.8;;;;;;;14.49;86.49512;935.3572;;;;
2020/08/04 07:37:53;;;;;;;3.7;1.8;;;;;;;14.49;86.41309;935.4814;;;;
2020/08/04 07:40:19;;;;;;;3.9;1.7;;;;;;;14.63;86.56836;935.5259;;;;
2020/08/04 07:42:44;;;;;;;3.9;2.1;;;;;;;14.67;86.92285;935.5311;;;;
2020/08/04 07:45:12;;;;;;;8.1;3;;;;;;;14.68;86.83301;935.5686;;;;
2020/08/04 07:47:39;;;;;;;6.3;2.4;;;;;;;14.69;86.98438;935.6663;;;;
2020/08/04 07:50:06;;;;;;;4.3;2.3;;;;;;;14.61;87.1416;935.6364;;;;
2020/08/04 07:52:32;;;;;;;4.6;2.1;;;;;;;14.56;86.11816;935.6184;;;;
2020/08/04 07:54:57;;;;;;;5.9;2.4;;;;;;;14.51;87.3291;935.7103;;;;
2020/08/04 07:57:22;;;;;;;4.4;2.1;;;;;;;14.62;85.20898;935.7103;;;;
2020/08/04 07:59:47;;;;;;;3.3;1.8;;;;;;;14.54;86.47168;935.7252;;;;
2020/08/04 08:02:13;;;;;;;3.4;1.7;;;;;;;14.68;85.65723;935.7914;;;;
2020/08/04 08:04:42;;;;;;;3;1.6;;;;;;;14.79;84.95215;935.8616;;;;
2020/08/04 08:07:07;;;;;;;4.1;1.8;;;;;;;14.85;85.20801;935.902;;;;
2020/08/04 08:09:34;;;;;;;3.7;1.7;;;;;;;14.88;84.77539;935.9235;;;;
2020/08/04 08:11:59;;;;;;;4;2;;;;;;;14.95;85.17773;935.9572;;;;
2020/08/04 08:14:24;;;;;;;3.1;1.9;;;;;;;15.06;85.37402;936.0933;;;;
2020/08/04 08:16:53;;;;;;;2.9;1.5;;;;;;;15.01;82.9873;936.0239;;;;
2020/08/04 08:19:18;;;;;;;2.9;1.4;;;;;;;15.02;80.99316;936.1186;;;;
2020/08/04 08:21:43;;;;;;;2.2;1.4;;;;;;;14.99;82.97363;936.1194;;;;
2020/08/04 08:24:09;;;;;;;2.5;1.5;;;;;;;15.01;83.36719;936.1345;;;;
2020/08/04 08:26:34;;;;;;;6.6;2.4;;;;;;;15.1;83.36133;936.2349;;;;
2020/08/04 08:28:59;;;;;;;6.7;2.1;;;;;;;15.08;82.97949;936.166;;;;
2020/08/04 08:31:24;;;;;;;3.9;1.7;;;;;;;15.04;83.00488;936.1817;;;;
2020/08/04 08:33:49;;;;;;;2.7;1.5;;;;;;;14.95;83.18457;936.257;;;;
2020/08/04 08:36:14;;;;;;;2.4;1.5;;;;;;;15.01;82.74609;936.2187;;;;
2020/08/04 08:38:40;;;;;;;2.2;1.3;;;;;;;15.04;82.25586;936.1978;;;;
2020/08/04 08:41:08;;;;;;;4.5;1.5;;;;;;;15.15;82.76074;936.3;;;;
2020/08/04 08:43:33;;;;;;;3.7;1.6;;;;;;;14.85;83.81152;936.3414;;;;
2020/08/04 08:46:02;;;;;;;3.1;1.5;;;;;;;14.86;83.58203;936.363;;;;
2020/08/04 08:48:27;;;;;;;2.8;1.5;;;;;;;14.97;82.98047;936.389;;;;
2020/08/04 08:50:52;;;;;;;2.3;1.5;;;;;;;14.92;83.75586;936.4297;;;;
2020/08/04 08:53:17;;;;;;;3.7;2;;;;;;;14.58;86.0752;936.4532;;;;
2020/08/04 08:55:43;;;;;;;4.3;2;;;;;;;14.64;85.68262;936.5051;;;;
2020/08/04 08:58:08;;;;;;;4;2.1;;;;;;;14.74;85.81738;936.4865;;;;
2020/08/04 09:00:36;;;;;;;3.6;2.1;;;;;;;14.84;85.83887;936.4601;;;;
2020/08/04 09:03:01;;;;;;;3.6;2.1;;;;;;;14.87;85.01563;936.4822;;;;
2020/08/04 09:05:26;;;;;;;3.5;2;;;;;;;14.96;84.99707;936.4911;;;;
2020/08/04 09:07:51;;;;;;;4.3;2.2;;;;;;;14.99;84.96973;936.5556;;;;
2020/08/04 09:10:17;;;;;;;6.1;2.3;;;;;;;;;;;;;
2020/08/04 09:12:42;;;;;;;4.3;1.9;;;;;;;;;;;;;
2020/08/04 09:15:11;;;;;;;4;1.9;;;;;;;;;;;;;
2020/08/04 09:17:36;;;;;;;3.2;1.5;;;;;;;;;;;;;
2020/08/04 09:20:03;;;;;;;3.3;1.5;;;;;;;;;;;;;
2020/08/04 09:22:27;;;;;;;2.8;1.5;;;;;;;;;;;;;
2020/08/04 09:24:53;;;;;;;2.5;1.6;;;;;;;;;;;;;
2020/08/04 09:27:18;;;;;;;4.5;1.7;;;;;;;;;;;;;
2020/08/04 09:29:43;;;;;;;2.6;1.8;;;;;;;;;;;;;
2020/08/04 09:32:08;;;;;;;2.6;1.8;;;;;;;;;;;;;
2020/08/04 09:34:33;;;;;;;2.6;1.9;;;;;;;;;;;;;
2020/08/04 09:36:58;;;;;;;2.2;1.7;;;;;;;;;;;;;
2020/08/04 09:39:24;;;;;;;3.4;2;;;;;;;;;;;;;
2020/08/04 09:41:49;;;;;;;2.8;1.9;;;;;;;;;;;;;
2020/08/04 09:44:16;;;;;;;3.6;1.8;;;;;;;;;;;;;
2020/08/04 09:46:41;;;;;;;2.4;1.6;;;;;;;;;;;;;
2020/08/04 09:49:07;;;;;;;2.2;1.6;;;;;;;;;;;;;
2020/08/04 09:51:31;;;;;;;2.6;1.6;;;;;;;;;;;;;
2020/08/04 09:53:58;;;;;;;2.3;1.7;;;;;;;;;;;;;
2020/08/04 09:56:23;;;;;;;2.9;1.8;;;;;;;;;;;;;
2020/08/04 09:58:49;;;;;;;2.7;1.6;;;;;;;;;;;;;
2020/08/04 10:01:14;;;;;;;2.3;1.5;;;;;;;;;;;;;
2020/08/04 10:03:39;;;;;;;3.1;1.8;;;;;;;;;;;;;
2020/08/04 10:06:04;;;;;;;2.1;1.7;;;;;;;;;;;;;
2020/08/04 10:08:30;;;;;;;2.4;1.6;;;;;;;;;;;;;
2020/08/04 10:10:57;;;;;;;3;1.9;;;;;;;;;;;;;
2020/08/04 10:13:23;;;;;;;5.9;2.2;;;;;;;;;;;;;
2020/08/04 10:15:48;;;;;;;5.4;2.3;;;;;;;;;;;;;
2020/08/04 10:18:14;;;;;;;6.8;2.7;;;;;;;;;;;;;
2020/08/04 10:20:39;;;;;;;5.3;2.2;;;;;;;;;;;;;
2020/08/04 10:23:04;;;;;;;3.7;1.8;;;;;;;;;;;;;
2020/08/04 10:25:29;;;;;;;4.4;2.2;;;;;;;;;;;;;
2020/08/04 10:27:54;;;;;;;3.1;2;;;;;;;;;;;;;
2020/08/04 10:30:19;;;;;;;5.3;2.1;;;;;;;;;;;;;
2020/08/04 10:32:46;;;;;;;3.9;1.7;;;;;;;;;;;;;
2020/08/04 10:35:11;;;;;;;3.3;1.6;;;;;;;;;;;;;
2020/08/04 10:37:36;;;;;;;4;1.8;;;;;;;;;;;;;
2020/08/04 10:40:01;;;;;;;3.3;1.8;;;;;;;;;;;;;
2020/08/04 10:42:26;;;;;;;2.7;1.3;;;;;;;;;;;;;
2020/08/04 10:44:52;;;;;;;2.4;1.4;;;;;;;;;;;;;
2020/08/04 10:47:17;;;;;;;2.2;1.2;;;;;;;;;;;;;
2020/08/04 10:49:42;;;;;;;1.9;1.2;;;;;;;;;;;;;
2020/08/04 10:52:08;;;;;;;1.9;1.2;;;;;;;;;;;;;
2020/08/04 10:54:34;;;;;;;2.7;1.2;;;;;;;;;;;;;
2020/08/04 10:56:59;;;;;;;2.5;1.1;;;;;;;;;;;;;
2020/08/04 10:59:24;;;;;;;2.3;1.1;;;;;;;;;;;;;
2020/08/04 11:01:49;;;;;;;1.6;1;;;;;;;;;;;;;
2020/08/04 11:04:14;;;;;;;2.1;1.2;;;;;;;;;;;;;
2020/08/04 11:06:39;;;;;;;2.1;1.1;;;;;;;;;;;;;
2020/08/04 11:09:05;;;;;;;1.5;1;;;;;;;;;;;;;
2020/08/04 11:11:30;;;;;;;2.1;1.4;;;;;;;;;;;;;
2020/08/04 11:13:55;;;;;;;2.1;1.2;;;;;;;;;;;;;
2020/08/04 11:16:20;;;;;;;1.4;0.9;;;;;;;;;;;;;
2020/08/04 11:18:45;;;;;;;0.9;0.7;;;;;;;;;;;;;
2020/08/04 11:21:11;;;;;;;1.1;0.8;;;;;;;;;;;;;
2020/08/04 11:23:36;;;;;;;1.2;0.8;;;;;;;;;;;;;
2020/08/04 11:26:03;;;;;;;1;0.8;;;;;;;;;;;;;
2020/08/04 11:28:28;;;;;;;1.3;0.6;;;;;;;;;;;;;
2020/08/04 11:30:55;;;;;;;1.2;0.7;;;;;;;;;;;;;
2020/08/04 11:33:20;;;;;;;1.8;0.9;;;;;;;;;;;;;
2020/08/04 11:35:45;;;;;;;1.5;1;;;;;;;;;;;;;
2020/08/04 11:38:11;;;;;;;1.4;1.3;;;;;;;;;;;;;
2020/08/04 11:40:36;;;;;;;3.1;1.4;;;;;;;;;;;;;
2020/08/04 11:43:02;;;;;;;2.6;1.4;;;;;;;;;;;;;
2020/08/04 11:45:28;;;;;;;3.5;1.7;;;;;;;;;;;;;
2020/08/04 11:47:53;;;;;;;3.8;1.7;;;;;;;;;;;;;
2020/08/04 11:50:18;;;;;;;3.7;1.8;;;;;;;;;;;;;
2020/08/04 11:52:43;;;;;;;2.7;1.8;;;;;;;;;;;;;
2020/08/04 11:55:12;;;;;;;4.6;1.7;;;;;;;;;;;;;
2020/08/04 11:57:37;;;;;;;3.6;1.5;;;;;;;;;;;;;
2020/08/04 12:00:06;;;;;;;2.3;1.3;;;;;;;;;;;;;
2020/08/04 12:02:32;;;;;;;2.6;1.4;;;;;;;;;;;;;
2020/08/04 12:04:57;;;;;;;2.9;1.4;;;;;;;;;;;;;
2020/08/04 12:07:22;;;;;;;2.1;1.5;;;;;;;;;;;;;
2020/08/04 12:09:48;;;;;;;5.2;1.8;;;;;;;;;;;;;
2020/08/04 12:12:12;;;;;;;4;1.8;;;;;;;;;;;;;
2020/08/04 12:14:38;;;;;;;2.7;1.7;;;;;;;;;;;;;
2020/08/04 12:17:03;;;;;;;3.7;1.5;;;;;;;;;;;;;
2020/08/04 12:19:28;;;;;;;2.5;1.3;;;;;;;;;;;;;
2020/08/04 12:21:54;;;;;;;3.4;1.6;;;;;;;;;;;;;
2020/08/04 12:24:19;;;;;;;3;1.5;;;;;;;;;;;;;
2020/08/04 12:26:45;;;;;;;3.2;1.4;;;;;;;;;;;;;
2020/08/04 12:29:10;;;;;;;1.9;1.3;;;;;;;;;;;;;
2020/08/04 12:31:35;;;;;;;4.1;1.3;;;;;;;;;;;;;
2020/08/04 12:34:00;;;;;;;4.4;1.2;;;;;;;;;;;;;
2020/08/04 12:36:25;;;;;;;2.4;0.9;;;;;;;;;;;;;
2020/08/04 12:38:50;;;;;;;0.9;0.8;;;;;;;;;;;;;
2020/08/04 12:41:18;;;;;;;6.3;1.5;;;;;;;;;;;;;
2020/08/04 12:43:42;;;;;;;3;1.3;;;;;;;;;;;;;
2020/08/04 12:46:08;;;;;;;2;1.1;;;;;;;;;;;;;
2020/08/04 12:48:33;;;;;;;2.1;1;;;;;;;;;;;;;
2020/08/04 12:50:58;;;;;;;2;1;;;;;;;;;;;;;
2020/08/04 12:53:23;;;;;;;1.6;1.1;;;;;;;;;;;;;
2020/08/04 12:55:49;;;;;;;1.5;1.2;;;;;;;;;;;;;
2020/08/04 12:58:14;;;;;;;2.5;1.1;;;;;;;;;;;;;
2020/08/04 13:00:44;;;;;;;1.6;1.1;;;;;;;;;;;;;
2020/08/04 13:03:10;;;;;;;2.9;1.1;;;;;;;;;;;;;
2020/08/04 13:05:37;;;;;;;2.8;1.3;;;;;;;;;;;;;
2020/08/04 13:08:02;;;;;;;2.3;1.2;;;;;;;;;;;;;
2020/08/04 13:10:27;;;;;;;3;1.6;;;;;;;;;;;;;
2020/08/04 13:12:53;;;;;;;3.1;1.4;;;;;;;;;;;;;
2020/08/04 13:15:25;;;;;;;2.8;1.7;;;;;;;;;;;;;
2020/08/04 13:17:50;;;;;;;6.9;2.9;;;;;;;;;;;;;
2020/08/04 13:20:20;;;;;;;3;1.4;;;;;;;;;;;;;
2020/08/04 13:22:45;;;;;;;3.9;1.7;;;;;;;;;;;;;
2020/08/04 13:25:10;;;;;;;3.5;1.4;;;;;;;;;;;;;
2020/08/04 13:27:37;;;;;;;1.5;1;;;;;;;;;;;;;
2020/08/04 13:30:02;;;;;;;1.7;0.9;;;;;;;;;;;;;
2020/08/04 13:32:27;;;;;;;1.4;1.2;;;;;;;;;;;;;
2020/08/04 13:34:53;;;;;;;2.8;1;;;;;;;;;;;;;
2020/08/04 13:37:18;;;;;;;4.1;1.5;;;;;;;;;;;;;
2020/08/04 13:39:44;;;;;;;3.2;1.5;;;;;;;;;;;;;
2020/08/04 13:42:09;;;;;;;5.1;1.6;;;;;;;;;;;;;
2020/08/04 13:44:34;;;;;;;3.2;1.4;;;;;;;;;;;;;
2020/08/04 13:47:00;;;;;;;2.3;1;;;;;;;;;;;;;
2020/08/04 13:49:25;;;;;;;2.4;1;;;;;;;;;;;;;
2020/08/04 13:51:50;;;;;;;2.5;1.4;;;;;;;;;;;;;
2020/08/04 13:54:16;;;;;;;2;1.1;;;;;;;;;;;;;
2020/08/04 13:56:41;;;;;;;2.2;1.4;;;;;;;;;;;;;
2020/08/04 13:59:07;;;;;;;1.9;1.2;;;;;;;;;;;;;
2020/08/04 14:01:32;;;;;;;2.7;1.2;;;;;;;;;;;;;
2020/08/04 14:03:59;;;;;;;3.1;1;;;;;;;;;;;;;
2020/08/04 14:06:24;;;;;;;3.1;1.2;;;;;;;;;;;;;
2020/08/04 14:08:51;;;;;;;2.3;1.1;;;;;;;;;;;;;
2020/08/04 14:11:16;;;;;;;3.4;1.3;;;;;;;;;;;;;
2020/08/04 14:13:42;;;;;;;2.3;1.2;;;;;;;;;;;;;
2020/08/04 14:16:07;;;;;;;5.1;1.6;;;;;;;;;;;;;
2020/08/04 14:18:33;;;;;;;2.7;1.3;;;;;;;;;;;;;
2020/08/04 14:20:58;;;;;;;2.2;1.2;;;;;;;;;;;;;
2020/08/04 14:23:23;;;;;;;2.4;1.1;;;;;;;;;;;;;
2020/08/04 14:25:51;;;;;;;1.9;1;;;;;;;;;;;;;
2020/08/04 14:28:17;;;;;;;1.7;0.9;;;;;;;;;;;;;
2020/08/04 14:30:48;;;;;;;1.3;0.9;;;;;;;;;;;;;
2020/08/04 14:33:19;;;;;;;3.6;1.5;;;;;;;;;;;;;
2020/08/04 14:35:44;;;;;;;3.1;1.5;;;;;;;;;;;;;
2020/08/04 14:38:10;;;;;;;1.7;0.9;;;;;;;;;;;;;
2020/08/04 14:40:35;;;;;;;1.7;0.9;;;;;;;;;;;;;
2020/08/04 14:43:00;;;;;;;0.8;0.8;;;;;;;;;;;;;
2020/08/04 14:45:28;;;;;;;3.9;1.7;;;;;;;;;;;;;
2020/08/04 14:47:53;;;;;;;2.3;1.5;;;;;;;;;;;;;
2020/08/04 14:50:20;;;;;;;3.3;1.7;;;;;;;;;;;;;
2020/08/04 14:52:45;;;;;;;3.3;1.5;;;;;;;;;;;;;
2020/08/04 14:55:14;;;;;;;5.1;1.8;;;;;;;;;;;;;
2020/08/04 14:57:39;;;;;;;3.6;1.7;;;;;;;;;;;;;
2020/08/04 15:00:04;;;;;;;3.9;1.6;;;;;;;;;;;;;
2020/08/04 15:02:29;;;;;;;4.6;1.9;;;;;;;;;;;;;
2020/08/04 15:04:55;;;;;;;3.8;1.5;;;;;;;;;;;;;
2020/08/04 15:07:20;;;;;;;2.8;1.4;;;;;;;;;;;;;
2020/08/04 15:09:46;;;;;;;3.1;1.7;;;;;;;;;;;;;
2020/08/04 15:12:12;;;;;;;6.9;2;;;;;;;;;;;;;
2020/08/04 15:14:38;;;;;;;2.9;1.2;;;;;;;;;;;;;
2020/08/04 15:17:04;;;;;;;2.6;1.4;;;;;;;;;;;;;
2020/08/04 15:19:29;;;;;;;3;1.5;;;;;;;;;;;;;
2020/08/04 15:21:56;;;;;;;2.5;1.3;;;;;;;;;;;;;
2020/08/04 15:24:21;;;;;;;4.4;1.2;;;;;;;;;;;;;
2020/08/04 15:26:47;;;;;;;3.7;1.5;;;;;;;;;;;;;
2020/08/04 15:29:12;;;;;;;3;1.2;;;;;;;;;;;;;
2020/08/04 15:31:37;;;;;;;3.3;1.6;;;;;;;;;;;;;
2020/08/04 15:34:02;;;;;;;2.9;1.4;;;;;;;;;;;;;
2020/08/04 15:36:27;;;;;;;3;1.7;;;;;;;;;;;;;
2020/08/04 15:38:52;;;;;;;3.5;1.7;;;;;;;;;;;;;
2020/08/04 15:41:18;;;;;;;3.7;1.5;;;;;;;;;;;;;
2020/08/04 15:43:43;;;;;;;2.4;1.4;;;;;;;;;;;;;
2020/08/04 15:46:08;;;;;;;3.3;1.8;;;;;;;;;;;;;
2020/08/04 15:48:35;;;;;;;4.7;2.3;;;;;;;;;;;;;
2020/08/04 15:51:00;;;;;;;7.9;2.3;;;;;;;;;;;;;
2020/08/04 15:53:25;;;;;;;6.3;2.2;;;;;;;;;;;;;
2020/08/04 15:55:52;;;;;;;4.5;1.9;;;;;;;;;;;;;
2020/08/04 15:58:17;;;;;;;4.9;1.9;;;;;;;;;;;;;
2020/08/04 16:00:45;;;;;;;2.8;1.8;;;;;;;;;;;;;
2020/08/04 16:03:10;;;;;;;2.4;1.7;;;;;;;;;;;;;
2020/08/04 16:05:41;;;;;;;2.9;1.2;;;;;;;;;;;;;
2020/08/04 16:08:13;;;;;;;5;2;;;;;;;;;;;;;
2020/08/04 16:10:36;;;;;;;4.7;1.8;;;;;;;;;;;;;
2020/08/04 16:13:00;;;;;;;3.6;1.5;;;;;;;;;;;;;
2020/08/04 16:15:29;;;;;;;2;1.2;;;;;;;;;;;;;
2020/08/04 16:17:55;;;;;;;2.3;1.3;;;;;;;;;;;;;
2020/08/04 16:20:20;;;;;;;2.9;1.5;;;;;;;;;;;;;
2020/08/04 16:22:45;;;;;;;2.7;1.4;;;;;;;;;;;;;
2020/08/04 16:25:11;;;;;;;3.4;1.6;;;;;;;;;;;;;
2020/08/04 16:27:37;;;;;;;2.7;1.8;;;;;;;;;;;;;
2020/08/04 16:30:02;;;;;;;4;1.9;;;;;;;;;;;;;
2020/08/04 16:32:27;;;;;;;3;1.9;;;;;;;;;;;;;
2020/08/04 16:34:52;;;;;;;6.4;2.1;;;;;;;;;;;;;
2020/08/04 16:37:17;;;;;;;4.7;2.2;;;;;;;;;;;;;
2020/08/04 16:39:42;;;;;;;5;2.2;;;;;;;;;;;;;
2020/08/04 16:42:09;;;;;;;7.1;3.3;;;;;;;;;;;;;
2020/08/04 16:44:34;;;;;;;5.1;2.3;;;;;;;;;;;;;
2020/08/04 16:46:59;;;;;;;5.4;2.8;;;;;;;;;;;;;
2020/08/04 16:49:24;;;;;;;4.5;2.5;;;;;;;;;;;;;
2020/08/04 16:51:50;;;;;;;3.6;2;;;;;;;;;;;;;
2020/08/04 16:54:16;;;;;;;2.5;1.6;;;;;;;;;;;;;
2020/08/04 16:56:41;;;;;;;4;1.8;;;;;;;;;;;;;
2020/08/04 16:59:07;;;;;;;5.3;4.4;;;;;;;;;;;;;
2020/08/04 17:01:32;;;;;;;5.5;3.2;;;;;;;;;;;;;
2020/08/04 17:03:58;;;;;;;5;2.8;;;;;;;;;;;;;
2020/08/04 17:06:23;;;;;;;4.9;2.9;;;;;;;;;;;;;
2020/08/04 17:08:49;;;;;;;2.2;1.5;;;;;;;;;;;;;
2020/08/04 17:11:14;;;;;;;6.9;3.2;;;;;;;;;;;;;
2020/08/04 17:13:42;;;;;;;3.9;2.2;;;;;;;;;;;;;
2020/08/04 17:16:08;;;;;;;3.4;1.8;;;;;;;;;;;;;
2020/08/04 17:18:33;;;;;;;5;2.1;;;;;;;;;;;;;
2020/08/04 17:20:58;;;;;;;2.7;1.4;;;;;;;;;;;;;
2020/08/04 17:23:23;;;;;;;3.3;1.9;;;;;;;;;;;;;
2020/08/04 17:25:48;;;;;;;3.4;1.5;;;;;;;;;;;;;
2020/08/04 17:28:13;;;;;;;2.4;2.2;;;;;;;;;;;;;
2020/08/04 17:30:39;;;;;;;4.6;4.1;;;;;;;;;;;;;
2020/08/04 17:33:04;;;;;;;7.2;5.4;;;;;;;;;;;;;
2020/08/04 17:35:29;;;;;;;4.8;3.5;;;;;;;;;;;;;
2020/08/04 17:37:54;;;;;;;5.3;3.5;;;;;;;;;;;;;
2020/08/04 17:40:20;;;;;;;2.7;1.7;;;;;;;;;;;;;
2020/08/04 17:42:45;;;;;;;2.2;1.2;;;;;;;;;;;;;
2020/08/04 17:45:11;;;;;;;6.2;2.1;;;;;;;;;;;;;
2020/08/04 17:47:36;;;;;;;2;1.5;;;;;;;;;;;;;
2020/08/04 17:50:01;;;;;;;2;1.3;;;;;;;;;;;;;
2020/08/04 17:52:26;;;;;;;2.8;1.4;;;;;;;;;;;;;
2020/08/04 17:54:51;;;;;;;4.9;2.3;;;;;;;;;;;;;
2020/08/04 17:57:18;;;;;;;2.9;1.6;;;;;;;;;;;;;
2020/08/04 17:59:43;;;;;;;3.2;2.1;;;;;;;;;;;;;
2020/08/04 18:02:09;;;;;;;3.6;2;;;;;;;;;;;;;
2020/08/04 18:04:34;;;;;;;6.4;2.8;;;;;;;;;;;;;
2020/08/04 18:07:00;;;;;;;4;2.2;;;;;;;;;;;;;
2020/08/04 18:09:25;;;;;;;3.4;1.8;;;;;;;;;;;;;
2020/08/04 18:11:51;;;;;;;3.9;1.7;;;;;;;;;;;;;
2020/08/04 18:14:16;;;;;;;2.8;1.6;;;;;;;;;;;;;
2020/08/04 18:16:42;;;;;;;2.5;1.6;;;;;;;;;;;;;
2020/08/04 18:19:07;;;;;;;2.8;1.5;;;;;;;;;;;;;
2020/08/04 18:21:32;;;;;;;4.5;1.8;;;;;;;;;;;;;
2020/08/04 18:23:57;;;;;;;3.9;1.9;;;;;;;;;;;;;
2020/08/04 18:26:22;;;;;;;6;2.9;;;;;;;;;;;;;
2020/08/04 18:28:47;;;;;;;4.6;1.9;;;;;;;;;;;;;
2020/08/04 18:31:15;;;;;;;4.2;2.1;;;;;;;;;;;;;
2020/08/04 18:33:40;;;;;;;8.1;2.6;;;;;;;;;;;;;
2020/08/04 18:36:06;;;;;;;3.2;2;;;;;;;;;;;;;
2020/08/04 18:38:31;;;;;;;3.8;1.9;;;;;;;;;;;;;
2020/08/04 18:41:03;;;;;;;3.1;1.9;;;;;;;;;;;;;
2020/08/04 18:43:29;;;;;;;3.1;2.2;;;;;;;;;;;;;
2020/08/04 18:45:54;;;;;;;4.2;2.2;;;;;;;;;;;;;
2020/08/04 18:48:19;;;;;;;3.9;2.1;;;;;;;;;;;;;
2020/08/04 18:50:45;;;;;;;3.3;1.8;;;;;;;;;;;;;
2020/08/04 18:53:10;;;;;;;2.3;1.9;;;;;;;;;;;;;
2020/08/04 18:55:35;;;;;;;2.1;1.6;;;;;;;;;;;;;
2020/08/04 18:58:01;;;;;;;2;1.5;;;;;;;;;;;;;
2020/08/04 19:00:27;;;;;;;4;1.6;;;;;;;;;;;;;
2020/08/04 19:02:52;;;;;;;2.5;1.5;;;;;;;;;;;;;
2020/08/04 19:05:20;;;;;;;3.7;2.2;;;;;;;;;;;;;
2020/08/04 19:07:45;;;;;;;3.1;2.2;;;;;;;;;;;;;
2020/08/04 19:10:14;;;;;;;2.9;1.9;;;;;;;;;;;;;
2020/08/04 19:13:10;;;;;;;2.7;1.7;;;;;;;;;;;;;
2020/08/04 19:15:04;;;;;;;2.5;1.7;;;;;;;;;;;;;
2020/08/04 19:17:29;;;;;;;4.4;1.8;;;;;;;;;;;;;
2020/08/04 19:19:54;;;;;;;4;1.6;;;;;;;;;;;;;
2020/08/04 19:22:20;;;;;;;2.5;1.9;;;;;;;;;;;;;
2020/08/04 19:24:45;;;;;;;2.7;1.9;;;;;;;;;;;;;
2020/08/04 19:27:10;;;;;;;3.4;2;;;;;;;;;;;;;
2020/08/04 19:29:35;;;;;;;3.8;2.3;;;;;;;;;;;;;
2020/08/04 19:32:00;;;;;;;14.6;5.9;;;;;;;;;;;;;
2020/08/04 19:34:25;;;;;;;30.1;12.3;;;;;;;;;;;;;